Time;durP1;ratioP1;P1;durP2;ratioP2;P2;SDS_P1;SDS_P2;PMS_P1;PMS_P2;Temp;Humidity;BMP_temperature;BMP_pressure;BME280_temperature;BME280_humidity;BME280_pressure;Samples;Min_cycle;Max_cycle;Signal;HPM_P1;HPM_P2
2023/07/14 00:00:08;;;;;;;0.60;0.60;;;;;;;;;;5028082;28;20056;-82
2023/07/14 00:02:34;;;;;;;1.00;0.82;;;;;;;;;;5023418;28;20537;-83
2023/07/14 00:05:00;;;;;;;1.10;0.70;;;;;;;;;;5027677;28;20142;-81
2023/07/14 00:07:26;;;;;;;1.60;0.70;;;;;;;;;;5026171;28;20512;-83
2023/07/14 00:09:52;;;;;;;0.73;0.63;;;;;;;;;;5025858;28;20370;-83
2023/07/14 00:12:18;;;;;;;0.77;0.73;;;;;;;;;;5027884;28;20029;-83
2023/07/14 00:14:45;;;;;;;0.52;0.50;;;;;;;;;;5030531;28;20415;-82
2023/07/14 00:17:14;;;;;;;0.85;0.68;;;;;;;;;;5031006;28;20076;-83
2023/07/14 00:19:40;;;;;;;0.70;0.70;;;;;;;;;;5028942;28;20099;-83
2023/07/14 00:22:14;;;;;;;0.70;0.70;;;;;;;;;;5032495;28;20029;-82
2023/07/14 00:24:41;;;;;;;1.05;0.73;;;;;;;;;;5033472;28;20107;-83
2023/07/14 00:27:15;;;;;;;0.85;0.50;;;;;;;;;;5030422;28;20024;-84
2023/07/14 00:29:42;;;;;;;0.50;0.50;;;;;;;;;;5036781;28;20037;-83
2023/07/14 00:32:18;;;;;;;1.05;0.90;;;;;;;;;;5027131;28;20484;-83
2023/07/14 00:34:45;;;;;;;1.70;0.95;;;;;;;;;;5027304;28;20072;-83
2023/07/14 00:37:11;;;;;;;1.52;0.90;;;;;;;;;;5027845;28;20108;-84
2023/07/14 00:39:37;;;;;;;0.80;0.68;;;;;;;;;;5042796;28;20150;-83
2023/07/14 00:42:07;;;;;;;0.68;0.68;;;;;;;;;;5024169;28;20099;-83
2023/07/14 00:44:33;;;;;;;0.75;0.75;;;;;;;;;;5031544;28;20038;-83
2023/07/14 00:46:59;;;;;;;0.65;0.65;;;;;;;;;;5031264;28;20029;-84
2023/07/14 00:49:30;;;;;;;0.70;0.70;;;;;;;;;;5034308;28;20558;-83
2023/07/14 00:51:57;;;;;;;;;;;;;;;;;;5030680;28;20925;-83
2023/07/14 00:54:25;;;;;;;0.65;0.65;;;;;;;;;;5027718;28;20379;-83
2023/07/14 00:56:52;;;;;;;0.75;0.60;;;;;;;;;;5030424;28;20017;-83
2023/07/14 00:59:18;;;;;;;0.60;0.60;;;;;;;;;;5029594;28;20053;-83
2023/07/14 01:02:03;;;;;;;0.60;0.60;;;;;;;;;;5031022;28;20427;-83
2023/07/14 01:04:29;;;;;;;0.85;0.80;;;;;;;;;;5029809;28;20543;-83
2023/07/14 01:06:55;;;;;;;0.60;0.55;;;;;;;;;;5035937;28;20032;-83
2023/07/14 01:09:21;;;;;;;0.50;0.50;;;;;;;;;;5029982;28;20400;-83
2023/07/14 01:11:50;;;;;;;0.70;0.70;;;;;;;;;;5025506;28;20022;-83
2023/07/14 01:14:18;;;;;;;0.50;0.50;;;;;;;;;;5031948;28;20022;-83
2023/07/14 01:16:46;;;;;;;0.95;0.60;;;;;;;;;;5031432;28;20235;-83
2023/07/14 01:19:24;;;;;;;0.52;0.52;;;;;;;;;;5031499;28;20029;-83
2023/07/14 01:21:55;;;;;;;0.85;0.70;;;;;;;;;;5028726;28;20025;-83
2023/07/14 01:24:25;;;;;;;0.60;0.60;;;;;;;;;;5050776;28;20029;-83
2023/07/14 01:26:53;;;;;;;0.50;0.50;;;;;;;;;;5033791;28;20092;-83
2023/07/14 01:29:20;;;;;;;0.98;0.80;;;;;;;;;;5032431;28;20021;-83
2023/07/14 01:31:47;;;;;;;0.63;0.57;;;;;;;;;;5034003;28;20036;-83
2023/07/14 01:34:13;;;;;;;1.02;0.73;;;;;;;;;;5032493;28;20025;-82
2023/07/14 01:36:39;;;;;;;2.55;0.75;;;;;;;;;;5029908;28;20400;-83
2023/07/14 01:39:06;;;;;;;0.80;0.80;;;;;;;;;;5030566;28;20030;-83
2023/07/14 01:41:33;;;;;;;0.60;0.60;;;;;;;;;;5029238;28;20484;-83
2023/07/14 01:44:00;;;;;;;2.55;0.80;;;;;;;;;;5029885;28;20060;-83
2023/07/14 01:46:27;;;;;;;0.60;0.60;;;;;;;;;;5030305;28;20029;-83
2023/07/14 01:49:01;;;;;;;1.27;0.80;;;;;;;;;;5031717;28;20501;-83
2023/07/14 01:51:28;;;;;;;0.70;0.70;;;;;;;;;;5028992;28;20032;-82
2023/07/14 01:54:06;;;;;;;0.60;0.60;;;;;;;;;;5030203;28;20047;-83
2023/07/14 01:56:32;;;;;;;1.55;0.80;;;;;;;;;;5031806;28;20033;-83
2023/07/14 01:59:06;;;;;;;0.50;0.50;;;;;;;;;;5033935;28;20107;-83
2023/07/14 02:01:33;;;;;;;0.60;0.60;;;;;;;;;;5028592;28;20176;-83
2023/07/14 02:04:00;;;;;;;0.88;0.70;;;;;;;;;;5027246;28;20124;-83
2023/07/14 02:06:26;;;;;;;1.00;0.95;;;;;;;;;;5025423;28;20099;-83
2023/07/14 02:08:52;;;;;;;0.65;0.65;;;;;;;;;;5028855;28;20033;-82
2023/07/14 02:11:19;;;;;;;0.65;0.65;;;;;;;;;;5029041;28;20120;-84
2023/07/14 02:13:46;;;;;;;1.25;0.70;;;;;;;;;;5028305;28;20112;-83
2023/07/14 02:16:14;;;;;;;0.90;0.82;;;;;;;;;;5029863;28;20084;-81
2023/07/14 02:18:41;;;;;;;0.75;0.75;;;;;;;;;;5029612;28;20391;-83
2023/07/14 02:21:07;;;;;;;1.15;0.70;;;;;;;;;;5021167;28;20030;-83
2023/07/14 02:23:33;;;;;;;1.92;1.05;;;;;;;;;;5029370;28;20034;-83
2023/07/14 02:26:24;;;;;;;0.60;0.60;;;;;;;;;;5029852;28;20124;-83
2023/07/14 02:28:50;;;;;;;0.88;0.60;;;;;;;;;;5032025;28;20033;-83
2023/07/14 02:31:22;;;;;;;0.68;0.68;;;;;;;;;;5031761;28;20025;-83
2023/07/14 02:33:49;;;;;;;0.65;0.60;;;;;;;;;;5016887;28;20028;-84
2023/07/14 02:36:33;;;;;;;0.73;0.73;;;;;;;;;;5029786;28;20025;-76
2023/07/14 02:39:01;;;;;;;0.57;0.57;;;;;;;;;;5032207;28;20431;-75
2023/07/14 02:41:28;;;;;;;1.33;0.90;;;;;;;;;;5030104;28;20034;-76
2023/07/14 02:43:57;;;;;;;1.55;1.05;;;;;;;;;;5025791;28;20083;-74
2023/07/14 02:46:33;;;;;;;1.42;0.88;;;;;;;;;;5026001;28;20047;-75
2023/07/14 02:49:02;;;;;;;0.50;0.50;;;;;;;;;;5028636;28;20021;-75
2023/07/14 02:51:28;;;;;;;0.77;0.77;;;;;;;;;;5029013;28;20029;-74
2023/07/14 02:53:53;;;;;;;1.50;0.75;;;;;;;;;;5032975;28;20032;-74
2023/07/14 02:56:20;;;;;;;0.93;0.70;;;;;;;;;;5031757;28;20025;-75
2023/07/14 02:58:49;;;;;;;1.73;1.05;;;;;;;;;;5025826;28;20503;-76
2023/07/14 03:01:16;;;;;;;1.15;0.90;;;;;;;;;;5024168;28;20052;-77
2023/07/14 03:03:42;;;;;;;1.80;0.82;;;;;;;;;;5032598;28;20128;-77
2023/07/14 03:06:11;;;;;;;1.33;0.90;;;;;;;;;;5034298;28;20048;-79
2023/07/14 03:08:37;;;;;;;1.88;1.00;;;;;;;;;;5027776;28;20036;-79
2023/07/14 03:11:03;;;;;;;2.10;1.10;;;;;;;;;;5025123;28;20101;-78
2023/07/14 03:13:29;;;;;;;1.95;1.00;;;;;;;;;;5035883;28;20025;-79
2023/07/14 03:15:55;;;;;;;0.80;0.60;;;;;;;;;;5037293;28;20082;-79
2023/07/14 03:18:21;;;;;;;1.40;0.85;;;;;;;;;;5036380;28;20040;-78
2023/07/14 03:20:47;;;;;;;1.27;0.75;;;;;;;;;;5019913;28;20029;-79
2023/07/14 03:23:13;;;;;;;2.40;0.80;;;;;;;;;;5039004;28;20036;-78
2023/07/14 03:25:40;;;;;;;0.90;0.88;;;;;;;;;;5038130;28;20124;-79
2023/07/14 03:28:05;;;;;;;1.67;0.90;;;;;;;;;;5023280;28;20098;-79
2023/07/14 03:30:37;;;;;;;0.90;0.90;;;;;;;;;;5026108;28;20037;-79
2023/07/14 03:33:03;;;;;;;0.82;0.80;;;;;;;;;;5039227;28;20097;-79
2023/07/14 03:35:29;;;;;;;0.70;0.70;;;;;;;;;;5030007;28;20471;-79
2023/07/14 03:37:55;;;;;;;1.42;0.90;;;;;;;;;;5035628;28;20037;-81
2023/07/14 03:40:21;;;;;;;1.90;1.00;;;;;;;;;;5036873;28;20029;-83
2023/07/14 03:42:47;;;;;;;1.25;0.90;;;;;;;;;;5040506;28;20456;-82
2023/07/14 03:45:13;;;;;;;1.80;0.80;;;;;;;;;;5045317;28;20100;-81
2023/07/14 03:47:39;;;;;;;3.40;1.25;;;;;;;;;;5044092;28;20025;-81
2023/07/14 03:50:06;;;;;;;2.00;1.02;;;;;;;;;;5046301;28;20021;-81
2023/07/14 03:52:32;;;;;;;0.95;0.95;;;;;;;;;;5044165;28;20096;-82
2023/07/14 03:54:59;;;;;;;1.70;0.88;;;;;;;;;;5027798;28;20021;-83
2023/07/14 03:57:25;;;;;;;3.53;0.80;;;;;;;;;;5035657;28;20136;-81
2023/07/14 03:59:51;;;;;;;0.60;0.60;;;;;;;;;;5047600;28;20021;-82
2023/07/14 04:02:18;;;;;;;0.70;0.57;;;;;;;;;;5041155;28;20017;-81
2023/07/14 04:04:44;;;;;;;1.02;0.70;;;;;;;;;;5035333;28;20152;-82
2023/07/14 04:07:10;;;;;;;0.68;0.68;;;;;;;;;;5046427;28;20053;-82
2023/07/14 04:09:36;;;;;;;1.23;0.75;;;;;;;;;;5048336;28;20037;-81
2023/07/14 04:12:02;;;;;;;1.13;0.85;;;;;;;;;;5041779;28;20025;-82
2023/07/14 04:14:28;;;;;;;1.55;0.90;;;;;;;;;;5046441;28;20085;-82
2023/07/14 04:16:54;;;;;;;2.60;1.15;;;;;;;;;;5046799;28;20071;-83
2023/07/14 04:19:20;;;;;;;0.70;0.70;;;;;;;;;;5042815;28;20036;-82
2023/07/14 04:21:47;;;;;;;1.10;0.93;;;;;;;;;;5041739;28;20057;-81
2023/07/14 04:24:12;;;;;;;1.10;0.98;;;;;;;;;;5042820;28;20010;-82
2023/07/14 04:26:38;;;;;;;1.35;0.82;;;;;;;;;;5044303;28;21098;-82
2023/07/14 04:29:07;;;;;;;0.80;0.80;;;;;;;;;;5048478;28;20017;-84
2023/07/14 04:31:33;;;;;;;1.38;1.08;;;;;;;;;;5046457;28;20952;-82
2023/07/14 04:33:59;;;;;;;2.22;1.00;;;;;;;;;;5043318;28;20049;-84
2023/07/14 04:36:25;;;;;;;1.27;1.00;;;;;;;;;;5031731;28;20478;-78
2023/07/14 04:39:23;;;;;;;1.17;1.02;;;;;;;;;;5025586;28;20025;-78
2023/07/14 04:41:49;;;;;;;2.67;0.98;;;;;;;;;;5019090;28;20127;-80
2023/07/14 04:44:16;;;;;;;1.52;1.00;;;;;;;;;;5024296;28;20384;-78
2023/07/14 04:46:43;;;;;;;1.67;1.10;;;;;;;;;;5017845;28;20514;-78
2023/07/14 04:49:10;;;;;;;0.80;0.80;;;;;;;;;;5042366;28;20055;-79
2023/07/14 04:51:37;;;;;;;2.08;0.82;;;;;;;;;;5039450;28;20124;-79
2023/07/14 04:54:03;;;;;;;1.42;1.00;;;;;;;;;;5025959;28;20109;-77
2023/07/14 04:56:30;;;;;;;1.52;0.80;;;;;;;;;;5039396;28;20407;-79
2023/07/14 04:58:56;;;;;;;2.70;0.82;;;;;;;;;;5027134;28;20104;-78
2023/07/14 05:01:22;;;;;;;3.72;0.90;;;;;;;;;;5030480;28;20136;-78
2023/07/14 05:03:48;;;;;;;1.10;0.88;;;;;;;;;;5031186;28;20039;-77
2023/07/14 05:06:14;;;;;;;1.30;0.98;;;;;;;;;;5045254;28;20095;-79
2023/07/14 05:08:40;;;;;;;1.20;0.95;;;;;;;;;;5034030;28;20026;-78
2023/07/14 05:11:06;;;;;;;0.90;0.90;;;;;;;;;;5025248;28;20029;-79
2023/07/14 05:13:32;;;;;;;1.92;1.08;;;;;;;;;;5012838;28;20124;-78
2023/07/14 05:15:59;;;;;;;1.40;1.13;;;;;;;;;;5039243;28;20029;-77
2023/07/14 05:18:25;;;;;;;3.13;0.98;;;;;;;;;;5028404;28;20049;-77
2023/07/14 05:20:52;;;;;;;1.13;0.90;;;;;;;;;;5030927;28;20040;-77
2023/07/14 05:23:18;;;;;;;1.60;0.95;;;;;;;;;;5031307;28;20419;-77
2023/07/14 05:25:45;;;;;;;1.77;1.10;;;;;;;;;;5037449;28;20022;-77
2023/07/14 05:28:11;;;;;;;2.22;1.02;;;;;;;;;;5024854;28;20112;-77
2023/07/14 05:30:37;;;;;;;1.33;1.10;;;;;;;;;;5028045;28;20408;-77
2023/07/14 05:33:04;;;;;;;1.13;0.80;;;;;;;;;;5029790;28;20527;-76
2023/07/14 05:35:30;;;;;;;1.55;0.93;;;;;;;;;;5035426;28;20026;-77
2023/07/14 05:37:56;;;;;;;3.50;0.82;;;;;;;;;;5031087;28;20108;-78
2023/07/14 05:40:22;;;;;;;1.55;1.10;;;;;;;;;;5043616;28;20033;-77
2023/07/14 05:42:49;;;;;;;1.27;1.08;;;;;;;;;;5033568;28;20510;-77
2023/07/14 05:45:15;;;;;;;0.82;0.80;;;;;;;;;;5030651;28;20033;-78
2023/07/14 05:47:43;;;;;;;1.98;1.20;;;;;;;;;;5004405;28;20420;-78
2023/07/14 05:50:09;;;;;;;2.15;1.00;;;;;;;;;;5025136;28;20132;-79
2023/07/14 05:52:36;;;;;;;3.97;1.42;;;;;;;;;;5024634;28;20518;-78
2023/07/14 05:55:03;;;;;;;1.10;1.00;;;;;;;;;;5029495;28;20029;-78
2023/07/14 05:57:30;;;;;;;2.67;1.25;;;;;;;;;;5031220;28;20500;-78
2023/07/14 05:59:56;;;;;;;0.80;0.70;;;;;;;;;;5030518;28;20037;-78
2023/07/14 06:02:22;;;;;;;0.95;0.90;;;;;;;;;;5029791;28;20033;-78
2023/07/14 06:04:48;;;;;;;1.23;1.02;;;;;;;;;;5023307;28;20512;-78
2023/07/14 06:07:14;;;;;;;2.72;1.00;;;;;;;;;;5031816;28;20040;-78
2023/07/14 06:09:41;;;;;;;1.83;1.60;;;;;;;;;;5031140;28;20029;-78
2023/07/14 06:12:08;;;;;;;1.27;1.08;;;;;;;;;;5017945;28;20131;-78
2023/07/14 06:14:35;;;;;;;0.75;0.73;;;;;;;;;;5026062;28;20244;-79
2023/07/14 06:17:01;;;;;;;1.58;1.10;;;;;;;;;;5029398;28;20030;-78
2023/07/14 06:19:28;;;;;;;0.95;0.80;;;;;;;;;;5028101;28;20020;-78
2023/07/14 06:21:54;;;;;;;1.33;0.98;;;;;;;;;;5026154;28;20067;-78
2023/07/14 06:24:20;;;;;;;1.15;0.90;;;;;;;;;;5033236;28;20036;-79
2023/07/14 06:26:46;;;;;;;0.70;0.70;;;;;;;;;;5030876;28;20025;-76
2023/07/14 06:29:12;;;;;;;1.30;1.00;;;;;;;;;;5029412;28;20018;-77
2023/07/14 06:31:41;;;;;;;2.70;0.82;;;;;;;;;;5027608;28;20106;-75
2023/07/14 06:34:07;;;;;;;2.42;1.00;;;;;;;;;;5028968;28;20083;-75
2023/07/14 06:36:33;;;;;;;2.00;1.48;;;;;;;;;;5034411;28;20026;-75
2023/07/14 06:39:00;;;;;;;1.13;1.02;;;;;;;;;;5032040;28;20029;-75
2023/07/14 06:41:26;;;;;;;2.08;1.10;;;;;;;;;;5027970;28;20040;-77
2023/07/14 06:43:55;;;;;;;1.10;0.80;;;;;;;;;;5029785;28;20112;-78
2023/07/14 06:46:21;;;;;;;1.23;0.98;;;;;;;;;;5033059;28;20029;-79
2023/07/14 06:48:47;;;;;;;1.40;0.98;;;;;;;;;;5033904;28;20044;-79
2023/07/14 06:51:13;;;;;;;2.42;0.90;;;;;;;;;;5024207;28;20194;-81
2023/07/14 06:53:40;;;;;;;2.03;1.27;;;;;;;;;;5011877;28;20021;-80
2023/07/14 06:56:07;;;;;;;3.25;1.10;;;;;;;;;;5021898;28;20040;-79
2023/07/14 06:58:33;;;;;;;2.00;1.35;;;;;;;;;;5021084;28;20101;-79
2023/07/14 07:00:59;;;;;;;4.28;1.20;;;;;;;;;;5026594;28;20033;-79
2023/07/14 07:03:25;;;;;;;1.20;1.10;;;;;;;;;;5025346;28;20032;-79
2023/07/14 07:05:52;;;;;;;1.65;0.98;;;;;;;;;;5034219;28;20057;-79
2023/07/14 07:08:18;;;;;;;2.45;0.90;;;;;;;;;;5036535;28;20049;-79
2023/07/14 07:10:44;;;;;;;1.17;1.10;;;;;;;;;;5028800;28;20021;-79
2023/07/14 07:13:16;;;;;;;2.00;1.20;;;;;;;;;;5028916;28;20105;-79
2023/07/14 07:15:42;;;;;;;1.45;1.20;;;;;;;;;;5033666;28;20111;-79
2023/07/14 07:18:08;;;;;;;1.63;0.95;;;;;;;;;;5036481;28;20117;-79
2023/07/14 07:20:43;;;;;;;2.38;1.15;;;;;;;;;;5028555;28;20534;-79
2023/07/14 07:23:09;;;;;;;4.78;1.10;;;;;;;;;;5028511;28;20072;-79
2023/07/14 07:25:35;;;;;;;1.67;1.13;;;;;;;;;;5033734;28;20033;-79
2023/07/14 07:28:01;;;;;;;1.23;0.93;;;;;;;;;;5034288;28;20044;-79
2023/07/14 07:30:27;;;;;;;1.83;0.77;;;;;;;;;;5028885;28;20437;-79
2023/07/14 07:32:53;;;;;;;1.80;0.90;;;;;;;;;;5028342;28;20485;-79
2023/07/14 07:35:29;;;;;;;;;;;;;;;;;;;;;
2023/07/14 07:37:58;;;;;;;0.95;0.80;;;;;;;;;;5030566;28;20021;-79
2023/07/14 07:40:24;;;;;;;1.17;0.98;;;;;;;;;;5028423;28;20022;-79
2023/07/14 07:42:50;;;;;;;1.33;1.10;;;;;;;;;;5028580;28;20469;-79
2023/07/14 07:45:16;;;;;;;1.10;0.90;;;;;;;;;;5028614;28;20040;-79
2023/07/14 07:47:42;;;;;;;2.38;1.10;;;;;;;;;;5028865;28;20117;-79
2023/07/14 07:50:08;;;;;;;1.05;0.85;;;;;;;;;;5028289;28;20059;-79
2023/07/14 07:52:34;;;;;;;2.25;1.08;;;;;;;;;;5028534;28;20022;-80
2023/07/14 07:55:01;;;;;;;1.27;0.98;;;;;;;;;;5027945;28;20025;-79
2023/07/14 07:57:27;;;;;;;0.80;0.80;;;;;;;;;;5041772;28;20030;-79
2023/07/14 07:59:53;;;;;;;1.45;1.00;;;;;;;;;;5028370;28;20032;-79
2023/07/14 08:02:19;;;;;;;0.85;0.85;;;;;;;;;;5033281;28;20062;-80
2023/07/14 08:04:49;;;;;;;1.15;1.00;;;;;;;;;;5038115;28;20148;-79
2023/07/14 08:07:18;;;;;;;3.30;0.85;;;;;;;;;;5028217;28;20112;-79
2023/07/14 08:09:44;;;;;;;1.52;0.85;;;;;;;;;;5010597;28;20672;-79
2023/07/14 08:12:10;;;;;;;0.82;0.82;;;;;;;;;;5030296;28;20060;-79
2023/07/14 08:14:50;;;;;;;1.52;1.25;;;;;;;;;;5032052;28;20025;-79
2023/07/14 08:17:15;;;;;;;1.20;0.90;;;;;;;;;;5047980;28;20024;-79
2023/07/14 08:19:42;;;;;;;1.02;0.93;;;;;;;;;;5047913;28;20469;-79
2023/07/14 08:22:08;;;;;;;1.05;0.95;;;;;;;;;;5044504;28;20049;-79
2023/07/14 08:24:34;;;;;;;1.20;1.08;;;;;;;;;;5035789;28;20029;-79
2023/07/14 08:27:00;;;;;;;0.93;0.85;;;;;;;;;;5031012;28;20025;-78
2023/07/14 08:29:26;;;;;;;1.10;0.93;;;;;;;;;;5043981;28;20457;-79
2023/07/14 08:31:51;;;;;;;1.15;0.98;;;;;;;;;;5028923;28;20025;-79
2023/07/14 08:34:17;;;;;;;2.53;1.00;;;;;;;;;;5027702;28;20026;-79
2023/07/14 08:36:43;;;;;;;0.93;0.90;;;;;;;;;;5030868;28;20755;-79
2023/07/14 08:39:09;;;;;;;3.10;0.85;;;;;;;;;;5036153;28;20503;-79
2023/07/14 08:41:41;;;;;;;2.10;1.00;;;;;;;;;;5031813;28;20100;-79
2023/07/14 08:44:17;;;;;;;1.40;0.90;;;;;;;;;;5014021;28;20027;-79
2023/07/14 08:47:02;;;;;;;1.02;0.75;;;;;;;;;;5034272;28;21715;-78
2023/07/14 08:49:31;;;;;;;1.63;0.73;;;;;;;;;;5034433;28;20041;-79
2023/07/14 08:51:59;;;;;;;0.85;0.85;;;;;;;;;;5031888;28;20139;-79
2023/07/14 08:54:27;;;;;;;2.15;0.95;;;;;;;;;;5026570;28;20028;-81
2023/07/14 08:56:53;;;;;;;2.05;0.60;;;;;;;;;;5029085;28;20454;-79
2023/07/14 08:59:34;;;;;;;1.05;0.73;;;;;;;;;;5040003;28;20021;-80
2023/07/14 09:02:01;;;;;;;0.65;0.60;;;;;;;;;;5018548;28;20018;-78
2023/07/14 09:04:30;;;;;;;0.82;0.80;;;;;;;;;;5033980;28;20034;-81
2023/07/14 09:06:56;;;;;;;1.83;0.85;;;;;;;;;;5034248;28;20031;-80
2023/07/14 09:09:31;;;;;;;1.15;1.05;;;;;;;;;;5036337;28;20411;-78
2023/07/14 09:12:20;;;;;;;0.95;0.77;;;;;;;;;;5033644;28;20032;-80
2023/07/14 09:14:56;;;;;;;1.15;0.90;;;;;;;;;;5028358;28;20152;-81
2023/07/14 09:17:25;;;;;;;2.90;0.98;;;;;;;;;;5032199;28;20061;-84
2023/07/14 09:20:09;;;;;;;2.65;0.90;;;;;;;;;;5020547;28;20029;-83
2023/07/14 09:22:42;;;;;;;1.38;0.82;;;;;;;;;;5026998;28;20057;-84
2023/07/14 09:25:18;;;;;;;1.10;0.80;;;;;;;;;;5031077;28;20030;-82
2023/07/14 09:27:45;;;;;;;2.72;1.40;;;;;;;;;;5031183;28;20022;-81
2023/07/14 09:30:18;;;;;;;0.82;0.80;;;;;;;;;;5031896;28;20025;-77
2023/07/14 09:32:47;;;;;;;1.17;0.82;;;;;;;;;;5034730;28;20024;-80
2023/07/14 09:35:18;;;;;;;0.75;0.75;;;;;;;;;;5035341;28;20396;-80
2023/07/14 09:37:53;;;;;;;1.25;0.68;;;;;;;;;;5030218;28;20121;-76
2023/07/14 09:40:46;;;;;;;1.00;0.90;;;;;;;;;;5028929;28;20092;-76
2023/07/14 09:43:12;;;;;;;1.13;1.02;;;;;;;;;;5016553;28;20471;-76
2023/07/14 09:45:39;;;;;;;0.82;0.82;;;;;;;;;;5042142;28;20098;-76
2023/07/14 09:48:17;;;;;;;1.00;0.90;;;;;;;;;;5023803;28;20041;-76
2023/07/14 09:50:51;;;;;;;3.55;0.90;;;;;;;;;;5033298;28;20037;-76
2023/07/14 09:53:17;;;;;;;1.20;0.88;;;;;;;;;;5030248;28;20040;-76
2023/07/14 09:56:03;;;;;;;0.90;0.90;;;;;;;;;;5028908;28;20014;-76
2023/07/14 09:58:31;;;;;;;1.27;0.90;;;;;;;;;;5035745;28;20083;-76
2023/07/14 10:00:59;;;;;;;5.22;1.05;;;;;;;;;;5030628;28;20369;-76
2023/07/14 10:03:30;;;;;;;0.80;0.80;;;;;;;;;;5029161;28;20025;-77
2023/07/14 10:05:57;;;;;;;0.82;0.82;;;;;;;;;;5029395;28;20447;-77
2023/07/14 10:08:33;;;;;;;2.22;0.70;;;;;;;;;;5019039;28;20083;-77
2023/07/14 10:11:05;;;;;;;0.80;0.70;;;;;;;;;;5026438;28;20030;-76
2023/07/14 10:13:37;;;;;;;1.58;0.80;;;;;;;;;;5026415;28;20491;-76
2023/07/14 10:16:14;;;;;;;1.20;0.95;;;;;;;;;;5030539;28;20507;-76
2023/07/14 10:18:57;;;;;;;1.30;0.80;;;;;;;;;;5029358;28;20535;-76
2023/07/14 10:21:25;;;;;;;0.93;0.88;;;;;;;;;;5027045;28;20392;-78
2023/07/14 10:24:18;;;;;;;1.98;0.93;;;;;;;;;;5025923;28;20033;-77
2023/07/14 10:26:49;;;;;;;0.85;0.77;;;;;;;;;;5032582;28;20388;-76
2023/07/14 10:29:16;;;;;;;1.23;0.95;;;;;;;;;;5030119;28;20068;-76
2023/07/14 10:31:51;;;;;;;0.90;0.90;;;;;;;;;;5028294;28;20026;-78
2023/07/14 10:34:34;;;;;;;2.47;0.95;;;;;;;;;;5036957;28;20029;-78
2023/07/14 10:37:04;;;;;;;0.90;0.80;;;;;;;;;;5030867;28;20044;-79
2023/07/14 10:39:44;;;;;;;1.70;1.17;;;;;;;;;;5023523;28;20025;-79
2023/07/14 10:42:13;;;;;;;3.03;0.80;;;;;;;;;;5026532;28;20558;-79
2023/07/14 10:44:41;;;;;;;1.73;1.15;;;;;;;;;;5034579;28;20120;-80
2023/07/14 10:47:14;;;;;;;1.75;1.05;;;;;;;;;;5034743;28;20028;-79
2023/07/14 10:49:41;;;;;;;1.13;1.00;;;;;;;;;;5035693;28;20037;-78
2023/07/14 10:52:12;;;;;;;0.85;0.85;;;;;;;;;;5027685;28;20040;-79
2023/07/14 10:54:43;;;;;;;1.65;1.13;;;;;;;;;;5028531;28;20025;-77
2023/07/14 10:57:18;;;;;;;0.68;0.68;;;;;;;;;;5028903;28;20494;-79
2023/07/14 10:59:48;;;;;;;1.20;1.10;;;;;;;;;;5030541;28;20021;-78
2023/07/14 11:02:19;;;;;;;0.80;0.80;;;;;;;;;;5026519;28;20022;-79
2023/07/14 11:04:47;;;;;;;1.90;0.90;;;;;;;;;;5019455;28;20053;-77
2023/07/14 11:07:16;;;;;;;1.83;0.95;;;;;;;;;;5039149;28;20032;-77
2023/07/14 11:09:42;;;;;;;3.67;1.02;;;;;;;;;;5024952;28;20025;-76
2023/07/14 11:12:25;;;;;;;0.95;0.88;;;;;;;;;;5027314;28;20021;-76
2023/07/14 11:15:02;;;;;;;1.35;1.00;;;;;;;;;;5034913;28;20043;-76
2023/07/14 11:17:27;;;;;;;1.65;0.93;;;;;;;;;;5029106;28;20032;-77
2023/07/14 11:20:12;;;;;;;1.27;0.90;;;;;;;;;;5026579;28;20029;-76
2023/07/14 11:22:50;;;;;;;1.20;1.10;;;;;;;;;;5028424;28;20112;-77
2023/07/14 11:25:20;;;;;;;1.10;0.90;;;;;;;;;;5027873;28;20025;-76
2023/07/14 11:27:46;;;;;;;1.48;1.08;;;;;;;;;;5028605;28;20033;-76
2023/07/14 11:30:22;;;;;;;0.90;0.90;;;;;;;;;;5028352;28;20034;-76
2023/07/14 11:32:57;;;;;;;2.83;1.00;;;;;;;;;;5028419;28;20023;-76
2023/07/14 11:35:39;;;;;;;1.05;0.90;;;;;;;;;;5030865;28;20479;-74
2023/07/14 11:38:18;;;;;;;1.30;1.20;;;;;;;;;;5027090;28;20036;-76
2023/07/14 11:40:45;;;;;;;1.10;1.00;;;;;;;;;;5014282;28;20028;-76
2023/07/14 11:43:14;;;;;;;1.10;1.00;;;;;;;;;;5011358;28;20029;-75
2023/07/14 11:45:40;;;;;;;1.25;1.00;;;;;;;;;;5021041;28;20116;-75
2023/07/14 11:48:06;;;;;;;3.50;1.42;;;;;;;;;;5017645;28;20033;-76
2023/07/14 11:50:34;;;;;;;1.63;0.95;;;;;;;;;;5019614;28;20033;-76
2023/07/14 11:53:06;;;;;;;2.13;1.00;;;;;;;;;;5034153;28;20064;-75
2023/07/14 11:55:33;;;;;;;2.60;1.08;;;;;;;;;;5025502;28;20832;-78
2023/07/14 11:58:11;;;;;;;1.10;1.00;;;;;;;;;;5018997;28;20049;-77
2023/07/14 12:00:41;;;;;;;1.38;1.17;;;;;;;;;;5020330;28;20120;-77
2023/07/14 12:03:28;;;;;;;1.07;0.90;;;;;;;;;;5017049;28;20021;-77
2023/07/14 12:06:20;;;;;;;3.13;1.35;;;;;;;;;;5025463;28;20433;-76
2023/07/14 12:09:16;;;;;;;2.67;1.05;;;;;;;;;;5025050;28;20496;-76
2023/07/14 12:11:42;;;;;;;1.20;1.10;;;;;;;;;;5023452;28;20038;-76
2023/07/14 12:14:25;;;;;;;1.40;1.20;;;;;;;;;;5034546;28;20031;-75
2023/07/14 12:16:50;;;;;;;2.35;1.38;;;;;;;;;;5028671;28;20029;-76
2023/07/14 12:19:27;;;;;;;1.30;1.10;;;;;;;;;;5038061;28;20028;-76
2023/07/14 12:21:58;;;;;;;3.80;1.40;;;;;;;;;;5022902;28;20083;-76
2023/07/14 12:24:28;;;;;;;1.50;1.25;;;;;;;;;;5047694;28;20040;-75
2023/07/14 12:27:03;;;;;;;1.10;1.00;;;;;;;;;;5028596;28;20514;-76
2023/07/14 12:29:29;;;;;;;1.23;1.05;;;;;;;;;;5034278;28;20445;-76
2023/07/14 12:31:56;;;;;;;1.40;1.17;;;;;;;;;;5027400;28;20021;-76
2023/07/14 12:34:24;;;;;;;1.45;1.20;;;;;;;;;;5034993;28;20029;-76
2023/07/14 12:36:50;;;;;;;1.45;1.27;;;;;;;;;;5011275;28;20030;-74
2023/07/14 12:39:16;;;;;;;1.30;0.93;;;;;;;;;;5034063;28;20049;-76
2023/07/14 12:41:46;;;;;;;1.35;1.20;;;;;;;;;;5030405;28;20063;-77
2023/07/14 12:44:41;;;;;;;1.80;1.35;;;;;;;;;;5045710;28;20518;-77
2023/07/14 12:47:13;;;;;;;1.45;1.35;;;;;;;;;;5017228;28;20120;-77
2023/07/14 12:49:46;;;;;;;1.75;1.27;;;;;;;;;;5035986;28;20033;-77
2023/07/14 12:52:29;;;;;;;1.92;1.00;;;;;;;;;;5031163;28;20032;-76
2023/07/14 12:54:57;;;;;;;1.92;0.95;;;;;;;;;;5026053;28;20026;-77
2023/07/14 12:57:23;;;;;;;1.63;1.27;;;;;;;;;;5030138;28;20125;-76
2023/07/14 12:59:53;;;;;;;1.63;1.33;;;;;;;;;;5028714;28;20424;-77
2023/07/14 13:02:19;;;;;;;1.70;1.50;;;;;;;;;;5030279;28;20396;-76
2023/07/14 13:04:45;;;;;;;1.80;1.25;;;;;;;;;;5032434;28;20048;-76
2023/07/14 13:07:18;;;;;;;1.83;1.17;;;;;;;;;;5044777;28;20034;-76
2023/07/14 13:09:44;;;;;;;1.10;1.00;;;;;;;;;;5033240;28;20029;-76
2023/07/14 13:12:13;;;;;;;1.33;1.05;;;;;;;;;;5029846;28;20459;-76
2023/07/14 13:14:42;;;;;;;1.35;0.90;;;;;;;;;;5028609;28;21851;-78
2023/07/14 13:17:10;;;;;;;3.22;1.55;;;;;;;;;;5027709;28;20656;-77
2023/07/14 13:19:40;;;;;;;6.47;1.63;;;;;;;;;;5031304;28;20036;-76
2023/07/14 13:22:16;;;;;;;2.28;1.15;;;;;;;;;;5026925;28;20492;-76
2023/07/14 13:24:42;;;;;;;2.28;1.30;;;;;;;;;;5030914;28;20064;-77
2023/07/14 13:27:18;;;;;;;1.27;1.15;;;;;;;;;;5031499;28;20025;-76
2023/07/14 13:29:44;;;;;;;1.75;1.35;;;;;;;;;;5035986;28;20029;-76
2023/07/14 13:32:22;;;;;;;1.45;1.23;;;;;;;;;;5036340;28;20020;-75
2023/07/14 13:34:52;;;;;;;1.48;1.10;;;;;;;;;;5033993;28;20148;-77
2023/07/14 13:37:19;;;;;;;3.30;1.50;;;;;;;;;;5037486;28;20056;-77
2023/07/14 13:39:45;;;;;;;1.90;1.15;;;;;;;;;;5032470;28;20029;-76
2023/07/14 13:42:33;;;;;;;2.83;1.52;;;;;;;;;;5031562;28;20736;-76
2023/07/14 13:45:00;;;;;;;1.60;1.05;;;;;;;;;;5022113;28;20041;-76
2023/07/14 13:47:27;;;;;;;2.58;1.35;;;;;;;;;;5024287;28;20473;-77
2023/07/14 13:49:57;;;;;;;1.67;1.35;;;;;;;;;;5023846;28;20033;-76
2023/07/14 13:52:24;;;;;;;1.75;1.42;;;;;;;;;;5027166;28;20017;-76
2023/07/14 13:54:54;;;;;;;1.52;1.40;;;;;;;;;;5023212;28;20034;-77
2023/07/14 13:57:20;;;;;;;2.72;1.10;;;;;;;;;;5036477;28;20131;-77
2023/07/14 13:59:46;;;;;;;2.28;1.75;;;;;;;;;;5028433;28;20029;-78
2023/07/14 14:02:23;;;;;;;2.63;1.60;;;;;;;;;;5025364;28;20037;-76
2023/07/14 14:04:50;;;;;;;3.28;1.60;;;;;;;;;;5019489;28;20400;-76
2023/07/14 14:07:16;;;;;;;2.97;1.65;;;;;;;;;;5020666;28;20021;-78
2023/07/14 14:09:42;;;;;;;2.45;1.60;;;;;;;;;;5012277;28;20424;-76
2023/07/14 14:12:08;;;;;;;1.92;1.10;;;;;;;;;;5030395;28;20033;-78
2023/07/14 14:14:34;;;;;;;2.22;1.65;;;;;;;;;;5027736;28;20049;-78
2023/07/14 14:17:00;;;;;;;2.50;1.70;;;;;;;;;;5029267;28;20182;-78
2023/07/14 14:19:27;;;;;;;4.63;1.38;;;;;;;;;;5017742;28;20025;-78
2023/07/14 14:21:56;;;;;;;2.17;1.33;;;;;;;;;;5021999;28;20290;-80
2023/07/14 14:24:22;;;;;;;3.65;1.83;;;;;;;;;;5028446;28;20041;-82
2023/07/14 14:26:48;;;;;;;1.50;1.40;;;;;;;;;;5033131;28;20025;-81
2023/07/14 14:29:15;;;;;;;1.83;1.48;;;;;;;;;;5028382;28;20451;-78
2023/07/14 14:31:41;;;;;;;4.05;1.33;;;;;;;;;;5026369;28;20041;-77
2023/07/14 14:34:11;;;;;;;3.05;1.30;;;;;;;;;;5025077;28;20096;-77
2023/07/14 14:36:37;;;;;;;5.65;1.63;;;;;;;;;;5042559;28;20112;-78
2023/07/14 14:39:06;;;;;;;2.83;1.58;;;;;;;;;;5012190;28;20122;-78
2023/07/14 14:41:32;;;;;;;1.85;1.38;;;;;;;;;;5030939;28;20030;-78
2023/07/14 14:43:58;;;;;;;1.85;1.38;;;;;;;;;;5032457;28;20026;-78
2023/07/14 14:46:24;;;;;;;1.90;1.50;;;;;;;;;;5026635;28;20022;-78
2023/07/14 14:48:50;;;;;;;2.25;1.25;;;;;;;;;;5029203;28;20108;-77
2023/07/14 14:51:16;;;;;;;1.60;1.15;;;;;;;;;;5027359;28;20124;-77
2023/07/14 14:53:42;;;;;;;2.30;1.48;;;;;;;;;;5036102;28;20052;-77